sensor_id;sensor_type;location;lat;lon;timestamp;P1;durP1;ratioP1;P2;durP2;ratioP2
41061;SDS011;26812;42.662;23.352;2022-07-15T00:02:05;3.70;;;2.90;;
41061;SDS011;26812;42.662;23.352;2022-07-15T00:04:33;5.35;;;3.03;;
41061;SDS011;26812;42.662;23.352;2022-07-15T00:06:59;10.88;;;3.00;;
41061;SDS011;26812;42.662;23.352;2022-07-15T00:09:24;5.22;;;2.83;;
41061;SDS011;26812;42.662;23.352;2022-07-15T00:12:10;3.78;;;2.78;;
41061;SDS011;26812;42.662;23.352;2022-07-15T00:14:36;3.38;;;2.90;;
41061;SDS011;26812;42.662;23.352;2022-07-15T00:17:02;3.22;;;2.88;;
41061;SDS011;26812;42.662;23.352;2022-07-15T00:19:28;3.72;;;2.60;;
41061;SDS011;26812;42.662;23.352;2022-07-15T00:21:54;3.20;;;2.60;;
41061;SDS011;26812;42.662;23.352;2022-07-15T00:24:19;4.28;;;2.80;;
41061;SDS011;26812;42.662;23.352;2022-07-15T00:26:44;3.08;;;2.80;;
41061;SDS011;26812;42.662;23.352;2022-07-15T00:29:10;3.92;;;2.97;;
41061;SDS011;26812;42.662;23.352;2022-07-15T00:31:35;4.65;;;2.95;;
41061;SDS011;26812;42.662;23.352;2022-07-15T00:34:01;7.07;;;3.17;;
41061;SDS011;26812;42.662;23.352;2022-07-15T00:36:26;3.63;;;3.00;;
41061;SDS011;26812;42.662;23.352;2022-07-15T00:38:52;3.78;;;2.78;;
41061;SDS011;26812;42.662;23.352;2022-07-15T00:41:18;3.95;;;2.80;;
41061;SDS011;26812;42.662;23.352;2022-07-15T00:43:43;3.95;;;3.05;;
41061;SDS011;26812;42.662;23.352;2022-07-15T00:46:09;4.25;;;2.92;;
41061;SDS011;26812;42.662;23.352;2022-07-15T00:48:34;3.28;;;2.50;;
41061;SDS011;26812;42.662;23.352;2022-07-15T00:50:59;3.53;;;3.10;;
41061;SDS011;26812;42.662;23.352;2022-07-15T00:53:26;3.85;;;2.75;;
41061;SDS011;26812;42.662;23.352;2022-07-15T00:55:56;6.22;;;3.13;;
41061;SDS011;26812;42.662;23.352;2022-07-15T00:58:24;8.57;;;3.95;;
41061;SDS011;26812;42.662;23.352;2022-07-15T01:00:52;5.65;;;3.00;;
41061;SDS011;26812;42.662;23.352;2022-07-15T01:03:19;7.18;;;3.22;;
41061;SDS011;26812;42.662;23.352;2022-07-15T01:05:45;3.45;;;3.03;;
41061;SDS011;26812;42.662;23.352;2022-07-15T01:08:13;3.25;;;2.80;;
41061;SDS011;26812;42.662;23.352;2022-07-15T01:10:44;3.13;;;2.63;;
41061;SDS011;26812;42.662;23.352;2022-07-15T01:13:10;6.68;;;3.13;;
41061;SDS011;26812;42.662;23.352;2022-07-15T01:15:36;5.57;;;2.97;;
41061;SDS011;26812;42.662;23.352;2022-07-15T01:18:02;3.63;;;2.67;;
41061;SDS011;26812;42.662;23.352;2022-07-15T01:20:28;4.38;;;3.30;;
41061;SDS011;26812;42.662;23.352;2022-07-15T01:22:55;3.80;;;3.22;;
41061;SDS011;26812;42.662;23.352;2022-07-15T01:25:20;5.20;;;2.95;;
41061;SDS011;26812;42.662;23.352;2022-07-15T01:27:46;6.82;;;2.83;;
41061;SDS011;26812;42.662;23.352;2022-07-15T01:30:11;5.18;;;2.95;;
41061;SDS011;26812;42.662;23.352;2022-07-15T01:32:37;4.20;;;2.78;;
41061;SDS011;26812;42.662;23.352;2022-07-15T01:35:02;3.47;;;3.13;;
41061;SDS011;26812;42.662;23.352;2022-07-15T01:37:28;2.70;;;2.50;;
41061;SDS011;26812;42.662;23.352;2022-07-15T01:39:54;5.03;;;3.25;;
41061;SDS011;26812;42.662;23.352;2022-07-15T01:42:19;3.60;;;2.88;;
41061;SDS011;26812;42.662;23.352;2022-07-15T01:44:45;2.80;;;2.60;;
41061;SDS011;26812;42.662;23.352;2022-07-15T01:47:10;3.70;;;3.40;;
41061;SDS011;26812;42.662;23.352;2022-07-15T01:49:36;3.78;;;2.50;;
41061;SDS011;26812;42.662;23.352;2022-07-15T01:52:02;5.68;;;3.25;;
41061;SDS011;26812;42.662;23.352;2022-07-15T01:54:29;4.15;;;2.80;;
41061;SDS011;26812;42.662;23.352;2022-07-15T01:56:56;6.82;;;3.22;;
41061;SDS011;26812;42.662;23.352;2022-07-15T01:59:22;4.13;;;3.15;;
41061;SDS011;26812;42.662;23.352;2022-07-15T02:01:49;3.08;;;2.53;;
41061;SDS011;26812;42.662;23.352;2022-07-15T02:04:16;3.30;;;3.00;;
41061;SDS011;26812;42.662;23.352;2022-07-15T02:06:42;4.78;;;3.17;;
41061;SDS011;26812;42.662;23.352;2022-07-15T02:09:08;4.18;;;3.13;;
41061;SDS011;26812;42.662;23.352;2022-07-15T02:11:34;3.72;;;3.42;;
41061;SDS011;26812;42.662;23.352;2022-07-15T02:14:00;6.25;;;3.65;;
41061;SDS011;26812;42.662;23.352;2022-07-15T02:16:27;3.50;;;3.17;;
41061;SDS011;26812;42.662;23.352;2022-07-15T02:18:54;3.55;;;2.78;;
41061;SDS011;26812;42.662;23.352;2022-07-15T02:21:19;3.92;;;3.15;;
41061;SDS011;26812;42.662;23.352;2022-07-15T02:23:45;4.57;;;3.40;;
41061;SDS011;26812;42.662;23.352;2022-07-15T02:26:11;4.05;;;2.67;;
41061;SDS011;26812;42.662;23.352;2022-07-15T02:28:37;5.88;;;3.28;;
41061;SDS011;26812;42.662;23.352;2022-07-15T02:31:02;3.38;;;3.08;;
41061;SDS011;26812;42.662;23.352;2022-07-15T02:33:28;4.28;;;2.90;;
41061;SDS011;26812;42.662;23.352;2022-07-15T02:35:53;4.18;;;3.22;;
41061;SDS011;26812;42.662;23.352;2022-07-15T02:38:19;3.55;;;2.80;;
41061;SDS011;26812;42.662;23.352;2022-07-15T02:40:46;4.50;;;3.00;;
41061;SDS011;26812;42.662;23.352;2022-07-15T02:43:11;4.57;;;4.15;;
41061;SDS011;26812;42.662;23.352;2022-07-15T02:45:37;4.38;;;3.10;;
41061;SDS011;26812;42.662;23.352;2022-07-15T02:48:04;4.97;;;3.40;;
41061;SDS011;26812;42.662;23.352;2022-07-15T02:50:30;3.90;;;3.17;;
41061;SDS011;26812;42.662;23.352;2022-07-15T02:52:56;3.83;;;2.58;;
41061;SDS011;26812;42.662;23.352;2022-07-15T02:55:22;3.08;;;2.70;;
41061;SDS011;26812;42.662;23.352;2022-07-15T02:57:47;3.85;;;2.83;;
41061;SDS011;26812;42.662;23.352;2022-07-15T03:00:13;5.43;;;3.10;;
41061;SDS011;26812;42.662;23.352;2022-07-15T03:02:42;2.60;;;2.40;;
41061;SDS011;26812;42.662;23.352;2022-07-15T03:05:09;2.58;;;2.30;;
41061;SDS011;26812;42.662;23.352;2022-07-15T03:07:36;2.70;;;2.45;;
41061;SDS011;26812;42.662;23.352;2022-07-15T03:10:02;2.80;;;2.60;;
41061;SDS011;26812;42.662;23.352;2022-07-15T03:12:29;2.47;;;2.28;;
41061;SDS011;26812;42.662;23.352;2022-07-15T03:14:54;2.53;;;2.28;;
41061;SDS011;26812;42.662;23.352;2022-07-15T03:17:20;2.40;;;2.20;;
41061;SDS011;26812;42.662;23.352;2022-07-15T03:19:45;3.42;;;2.70;;
41061;SDS011;26812;42.662;23.352;2022-07-15T03:22:10;3.20;;;2.20;;
41061;SDS011;26812;42.662;23.352;2022-07-15T03:24:36;2.72;;;2.50;;
41061;SDS011;26812;42.662;23.352;2022-07-15T03:27:01;4.13;;;2.60;;
41061;SDS011;26812;42.662;23.352;2022-07-15T03:29:27;2.30;;;2.10;;
41061;SDS011;26812;42.662;23.352;2022-07-15T03:31:54;2.20;;;2.10;;
41061;SDS011;26812;42.662;23.352;2022-07-15T03:34:19;4.40;;;2.13;;
41061;SDS011;26812;42.662;23.352;2022-07-15T03:36:45;2.47;;;2.22;;
41061;SDS011;26812;42.662;23.352;2022-07-15T03:39:11;5.70;;;2.33;;
41061;SDS011;26812;42.662;23.352;2022-07-15T03:41:36;2.70;;;2.50;;
41061;SDS011;26812;42.662;23.352;2022-07-15T03:44:02;2.85;;;2.60;;
41061;SDS011;26812;42.662;23.352;2022-07-15T03:46:28;2.92;;;2.35;;
41061;SDS011;26812;42.662;23.352;2022-07-15T03:48:55;2.20;;;2.00;;
41061;SDS011;26812;42.662;23.352;2022-07-15T03:51:21;3.55;;;2.55;;
41061;SDS011;26812;42.662;23.352;2022-07-15T03:53:49;2.83;;;2.30;;
41061;SDS011;26812;42.662;23.352;2022-07-15T03:56:15;4.93;;;2.50;;
41061;SDS011;26812;42.662;23.352;2022-07-15T03:58:40;3.47;;;2.40;;
41061;SDS011;26812;42.662;23.352;2022-07-15T04:01:06;3.95;;;2.10;;
41061;SDS011;26812;42.662;23.352;2022-07-15T04:03:31;2.42;;;2.22;;
41061;SDS011;26812;42.662;23.352;2022-07-15T04:05:58;2.92;;;2.40;;
41061;SDS011;26812;42.662;23.352;2022-07-15T04:08:23;3.38;;;2.45;;
41061;SDS011;26812;42.662;23.352;2022-07-15T04:10:50;3.28;;;2.08;;
41061;SDS011;26812;42.662;23.352;2022-07-15T04:13:16;2.45;;;2.25;;
41061;SDS011;26812;42.662;23.352;2022-07-15T04:15:44;7.80;;;2.35;;
41061;SDS011;26812;42.662;23.352;2022-07-15T04:18:10;2.63;;;2.42;;
41061;SDS011;26812;42.662;23.352;2022-07-15T04:20:35;3.05;;;2.75;;
41061;SDS011;26812;42.662;23.352;2022-07-15T04:23:02;5.03;;;2.50;;
41061;SDS011;26812;42.662;23.352;2022-07-15T04:25:27;2.17;;;1.95;;
41061;SDS011;26812;42.662;23.352;2022-07-15T04:27:53;3.10;;;2.33;;
41061;SDS011;26812;42.662;23.352;2022-07-15T04:30:18;2.60;;;2.20;;
41061;SDS011;26812;42.662;23.352;2022-07-15T04:32:44;3.03;;;2.83;;
41061;SDS011;26812;42.662;23.352;2022-07-15T04:35:09;3.75;;;2.28;;
41061;SDS011;26812;42.662;23.352;2022-07-15T04:37:35;3.92;;;2.10;;
41061;SDS011;26812;42.662;23.352;2022-07-15T04:40:00;2.53;;;2.33;;
41061;SDS011;26812;42.662;23.352;2022-07-15T04:42:26;2.95;;;2.33;;
41061;SDS011;26812;42.662;23.352;2022-07-15T04:44:52;2.42;;;2.22;;
41061;SDS011;26812;42.662;23.352;2022-07-15T04:47:17;2.97;;;2.38;;
41061;SDS011;26812;42.662;23.352;2022-07-15T04:49:43;5.90;;;2.33;;
41061;SDS011;26812;42.662;23.352;2022-07-15T04:52:27;3.25;;;2.40;;
41061;SDS011;26812;42.662;23.352;2022-07-15T04:54:52;4.93;;;1.90;;
41061;SDS011;26812;42.662;23.352;2022-07-15T04:57:19;4.50;;;2.38;;
41061;SDS011;26812;42.662;23.352;2022-07-15T04:59:44;4.78;;;2.30;;
41061;SDS011;26812;42.662;23.352;2022-07-15T05:02:10;4.85;;;2.20;;
41061;SDS011;26812;42.662;23.352;2022-07-15T05:04:35;3.63;;;2.67;;
41061;SDS011;26812;42.662;23.352;2022-07-15T05:07:01;2.53;;;2.30;;
41061;SDS011;26812;42.662;23.352;2022-07-15T05:09:26;2.67;;;2.20;;
41061;SDS011;26812;42.662;23.352;2022-07-15T05:11:52;2.80;;;2.50;;
41061;SDS011;26812;42.662;23.352;2022-07-15T05:14:17;4.68;;;2.58;;
41061;SDS011;26812;42.662;23.352;2022-07-15T05:16:43;5.65;;;2.78;;
41061;SDS011;26812;42.662;23.352;2022-07-15T05:19:08;3.45;;;2.08;;
41061;SDS011;26812;42.662;23.352;2022-07-15T05:21:34;3.92;;;2.58;;
41061;SDS011;26812;42.662;23.352;2022-07-15T05:23:59;4.40;;;2.97;;
41061;SDS011;26812;42.662;23.352;2022-07-15T05:26:25;4.53;;;2.92;;
41061;SDS011;26812;42.662;23.352;2022-07-15T05:28:50;3.67;;;3.15;;
41061;SDS011;26812;42.662;23.352;2022-07-15T05:31:16;5.80;;;3.22;;
41061;SDS011;26812;42.662;23.352;2022-07-15T05:33:42;4.30;;;3.05;;
41061;SDS011;26812;42.662;23.352;2022-07-15T05:36:11;3.72;;;2.65;;
41061;SDS011;26812;42.662;23.352;2022-07-15T05:38:38;4.07;;;3.35;;
41061;SDS011;26812;42.662;23.352;2022-07-15T05:41:03;3.35;;;2.67;;
41061;SDS011;26812;42.662;23.352;2022-07-15T05:43:29;3.90;;;2.42;;
41061;SDS011;26812;42.662;23.352;2022-07-15T05:45:54;5.45;;;3.00;;
41061;SDS011;26812;42.662;23.352;2022-07-15T05:48:20;4.45;;;3.03;;
41061;SDS011;26812;42.662;23.352;2022-07-15T05:50:45;4.90;;;2.95;;
41061;SDS011;26812;42.662;23.352;2022-07-15T05:53:10;3.72;;;2.47;;
41061;SDS011;26812;42.662;23.352;2022-07-15T05:55:36;5.68;;;2.80;;
41061;SDS011;26812;42.662;23.352;2022-07-15T05:58:04;5.05;;;2.72;;
41061;SDS011;26812;42.662;23.352;2022-07-15T06:00:31;3.35;;;2.85;;
41061;SDS011;26812;42.662;23.352;2022-07-15T06:02:57;2.95;;;2.42;;
41061;SDS011;26812;42.662;23.352;2022-07-15T06:05:22;5.43;;;2.38;;
41061;SDS011;26812;42.662;23.352;2022-07-15T06:07:48;3.35;;;2.28;;
41061;SDS011;26812;42.662;23.352;2022-07-15T06:10:13;4.45;;;2.10;;
41061;SDS011;26812;42.662;23.352;2022-07-15T06:12:38;3.53;;;2.35;;
41061;SDS011;26812;42.662;23.352;2022-07-15T06:15:04;5.07;;;2.17;;
41061;SDS011;26812;42.662;23.352;2022-07-15T06:17:30;3.22;;;2.47;;
41061;SDS011;26812;42.662;23.352;2022-07-15T06:19:56;3.53;;;2.10;;
41061;SDS011;26812;42.662;23.352;2022-07-15T06:22:21;4.00;;;2.30;;
41061;SDS011;26812;42.662;23.352;2022-07-15T06:24:47;3.22;;;2.50;;
41061;SDS011;26812;42.662;23.352;2022-07-15T06:27:12;3.05;;;2.55;;
41061;SDS011;26812;42.662;23.352;2022-07-15T06:29:38;3.78;;;2.63;;
41061;SDS011;26812;42.662;23.352;2022-07-15T06:32:03;5.82;;;2.35;;
41061;SDS011;26812;42.662;23.352;2022-07-15T06:34:29;4.28;;;2.50;;
41061;SDS011;26812;42.662;23.352;2022-07-15T06:36:54;6.80;;;2.70;;
41061;SDS011;26812;42.662;23.352;2022-07-15T06:39:20;2.95;;;2.30;;
41061;SDS011;26812;42.662;23.352;2022-07-15T06:41:45;5.93;;;2.35;;
41061;SDS011;26812;42.662;23.352;2022-07-15T06:44:11;2.63;;;2.28;;
41061;SDS011;26812;42.662;23.352;2022-07-15T06:46:36;2.92;;;2.63;;
41061;SDS011;26812;42.662;23.352;2022-07-15T06:49:03;3.67;;;2.85;;
41061;SDS011;26812;42.662;23.352;2022-07-15T06:51:28;2.35;;;2.15;;
41061;SDS011;26812;42.662;23.352;2022-07-15T06:53:54;6.53;;;2.45;;
41061;SDS011;26812;42.662;23.352;2022-07-15T06:56:19;4.13;;;2.90;;
41061;SDS011;26812;42.662;23.352;2022-07-15T06:58:44;3.28;;;2.58;;
41061;SDS011;26812;42.662;23.352;2022-07-15T07:01:10;4.65;;;2.42;;
41061;SDS011;26812;42.662;23.352;2022-07-15T07:03:36;10.10;;;3.70;;
41061;SDS011;26812;42.662;23.352;2022-07-15T07:06:01;5.55;;;3.22;;
41061;SDS011;26812;42.662;23.352;2022-07-15T07:08:27;7.38;;;3.22;;
41061;SDS011;26812;42.662;23.352;2022-07-15T07:10:52;2.85;;;2.60;;
41061;SDS011;26812;42.662;23.352;2022-07-15T07:13:18;3.15;;;2.50;;
41061;SDS011;26812;42.662;23.352;2022-07-15T07:15:43;4.65;;;3.20;;
41061;SDS011;26812;42.662;23.352;2022-07-15T07:18:09;4.40;;;2.95;;
41061;SDS011;26812;42.662;23.352;2022-07-15T07:20:35;6.80;;;3.13;;
41061;SDS011;26812;42.662;23.352;2022-07-15T07:23:02;4.20;;;3.03;;
41061;SDS011;26812;42.662;23.352;2022-07-15T07:25:28;3.80;;;2.80;;
41061;SDS011;26812;42.662;23.352;2022-07-15T07:27:53;3.65;;;3.35;;
41061;SDS011;26812;42.662;23.352;2022-07-15T07:30:18;4.47;;;2.40;;
41061;SDS011;26812;42.662;23.352;2022-07-15T07:32:44;5.40;;;2.92;;
41061;SDS011;26812;42.662;23.352;2022-07-15T07:35:09;5.90;;;3.10;;
41061;SDS011;26812;42.662;23.352;2022-07-15T07:37:35;4.40;;;2.50;;
41061;SDS011;26812;42.662;23.352;2022-07-15T07:40:03;5.97;;;2.80;;
41061;SDS011;26812;42.662;23.352;2022-07-15T07:42:30;5.78;;;2.80;;
41061;SDS011;26812;42.662;23.352;2022-07-15T07:44:55;8.45;;;2.75;;
41061;SDS011;26812;42.662;23.352;2022-07-15T07:47:21;5.45;;;2.78;;
41061;SDS011;26812;42.662;23.352;2022-07-15T07:49:47;6.70;;;2.72;;
41061;SDS011;26812;42.662;23.352;2022-07-15T07:52:13;4.70;;;2.20;;
41061;SDS011;26812;42.662;23.352;2022-07-15T07:54:40;3.70;;;2.30;;
41061;SDS011;26812;42.662;23.352;2022-07-15T07:57:06;5.10;;;2.45;;
41061;SDS011;26812;42.662;23.352;2022-07-15T07:59:31;10.68;;;2.83;;
41061;SDS011;26812;42.662;23.352;2022-07-15T08:01:57;5.03;;;2.53;;
41061;SDS011;26812;42.662;23.352;2022-07-15T08:04:22;3.63;;;2.70;;
41061;SDS011;26812;42.662;23.352;2022-07-15T08:06:48;2.60;;;2.40;;
41061;SDS011;26812;42.662;23.352;2022-07-15T08:09:13;3.97;;;2.42;;
41061;SDS011;26812;42.662;23.352;2022-07-15T08:11:40;6.65;;;2.60;;
41061;SDS011;26812;42.662;23.352;2022-07-15T08:14:05;3.78;;;2.60;;
41061;SDS011;26812;42.662;23.352;2022-07-15T08:16:32;7.07;;;2.63;;
41061;SDS011;26812;42.662;23.352;2022-07-15T08:18:58;4.82;;;2.83;;
41061;SDS011;26812;42.662;23.352;2022-07-15T08:21:24;3.22;;;2.70;;
41061;SDS011;26812;42.662;23.352;2022-07-15T08:23:49;5.15;;;2.55;;
41061;SDS011;26812;42.662;23.352;2022-07-15T08:26:15;4.03;;;2.53;;
41061;SDS011;26812;42.662;23.352;2022-07-15T08:28:47;4.95;;;2.60;;
41061;SDS011;26812;42.662;23.352;2022-07-15T08:31:13;3.85;;;2.67;;
41061;SDS011;26812;42.662;23.352;2022-07-15T08:33:38;2.85;;;2.13;;
41061;SDS011;26812;42.662;23.352;2022-07-15T08:36:04;4.63;;;2.50;;
41061;SDS011;26812;42.662;23.352;2022-07-15T08:38:30;5.63;;;2.25;;
41061;SDS011;26812;42.662;23.352;2022-07-15T08:40:55;5.72;;;2.50;;
41061;SDS011;26812;42.662;23.352;2022-07-15T08:43:22;5.75;;;2.70;;
41061;SDS011;26812;42.662;23.352;2022-07-15T08:45:48;3.50;;;2.42;;
41061;SDS011;26812;42.662;23.352;2022-07-15T08:48:13;3.50;;;2.67;;
41061;SDS011;26812;42.662;23.352;2022-07-15T08:50:41;5.80;;;2.58;;
41061;SDS011;26812;42.662;23.352;2022-07-15T08:53:07;5.85;;;2.03;;
41061;SDS011;26812;42.662;23.352;2022-07-15T08:55:33;4.38;;;2.13;;
41061;SDS011;26812;42.662;23.352;2022-07-15T08:57:58;2.35;;;2.13;;
41061;SDS011;26812;42.662;23.352;2022-07-15T09:00:24;6.40;;;2.67;;
41061;SDS011;26812;42.662;23.352;2022-07-15T09:02:58;4.07;;;3.13;;
41061;SDS011;26812;42.662;23.352;2022-07-15T09:05:31;3.17;;;2.40;;
41061;SDS011;26812;42.662;23.352;2022-07-15T09:15:51;4.63;;;2.38;;
41061;SDS011;26812;42.662;23.352;2022-07-15T09:18:18;4.15;;;2.33;;
41061;SDS011;26812;42.662;23.352;2022-07-15T09:20:45;4.25;;;2.15;;
41061;SDS011;26812;42.662;23.352;2022-07-15T09:23:12;2.83;;;2.50;;
41061;SDS011;26812;42.662;23.352;2022-07-15T09:25:45;2.75;;;1.92;;
41061;SDS011;26812;42.662;23.352;2022-07-15T09:28:12;4.38;;;2.08;;
41061;SDS011;26812;42.662;23.352;2022-07-15T09:30:39;3.00;;;2.20;;
41061;SDS011;26812;42.662;23.352;2022-07-15T09:33:28;4.90;;;1.98;;
41061;SDS011;26812;42.662;23.352;2022-07-15T09:36:15;2.03;;;1.83;;
41061;SDS011;26812;42.662;23.352;2022-07-15T09:43:54;8.15;;;1.90;;
41061;SDS011;26812;42.662;23.352;2022-07-15T09:46:57;4.82;;;1.92;;
41061;SDS011;26812;42.662;23.352;2022-07-15T09:51:49;4.40;;;2.05;;
41061;SDS011;26812;42.662;23.352;2022-07-15T09:54:18;2.25;;;1.70;;
41061;SDS011;26812;42.662;23.352;2022-07-15T09:56:47;2.28;;;1.90;;
41061;SDS011;26812;42.662;23.352;2022-07-15T09:59:14;3.10;;;1.83;;
41061;SDS011;26812;42.662;23.352;2022-07-15T10:01:40;3.08;;;1.95;;
41061;SDS011;26812;42.662;23.352;2022-07-15T10:04:07;2.33;;;1.67;;
41061;SDS011;26812;42.662;23.352;2022-07-15T10:06:33;1.77;;;1.60;;
41061;SDS011;26812;42.662;23.352;2022-07-15T10:09:01;3.60;;;1.60;;
41061;SDS011;26812;42.662;23.352;2022-07-15T10:11:28;3.28;;;1.45;;
41061;SDS011;26812;42.662;23.352;2022-07-15T10:16:58;1.77;;;1.50;;
41061;SDS011;26812;42.662;23.352;2022-07-15T10:29:50;3.65;;;1.80;;
41061;SDS011;26812;42.662;23.352;2022-07-15T10:32:16;3.72;;;2.47;;
41061;SDS011;26812;42.662;23.352;2022-07-15T10:34:41;2.92;;;1.60;;
41061;SDS011;26812;42.662;23.352;2022-07-15T10:37:07;2.03;;;1.83;;
41061;SDS011;26812;42.662;23.352;2022-07-15T10:39:55;4.32;;;2.08;;
41061;SDS011;26812;42.662;23.352;2022-07-15T10:42:23;2.15;;;1.83;;
41061;SDS011;26812;42.662;23.352;2022-07-15T10:47:23;3.47;;;2.10;;
41061;SDS011;26812;42.662;23.352;2022-07-15T10:49:50;1.98;;;1.65;;
41061;SDS011;26812;42.662;23.352;2022-07-15T10:52:20;4.15;;;2.20;;
41061;SDS011;26812;42.662;23.352;2022-07-15T11:09:01;1.92;;;1.50;;
41061;SDS011;26812;42.662;23.352;2022-07-15T11:13:49;1.83;;;1.40;;
41061;SDS011;26812;42.662;23.352;2022-07-15T11:18:53;2.38;;;1.30;;
41061;SDS011;26812;42.662;23.352;2022-07-15T11:21:22;2.65;;;1.50;;
41061;SDS011;26812;42.662;23.352;2022-07-15T11:23:49;3.08;;;1.45;;
41061;SDS011;26812;42.662;23.352;2022-07-15T11:26:16;2.13;;;1.40;;
41061;SDS011;26812;42.662;23.352;2022-07-15T11:28:48;3.10;;;1.70;;
41061;SDS011;26812;42.662;23.352;2022-07-15T11:31:15;2.17;;;1.77;;
41061;SDS011;26812;42.662;23.352;2022-07-15T11:33:40;2.53;;;1.90;;
41061;SDS011;26812;42.662;23.352;2022-07-15T11:36:06;2.80;;;2.00;;
41061;SDS011;26812;42.662;23.352;2022-07-15T11:38:41;3.20;;;2.05;;
41061;SDS011;26812;42.662;23.352;2022-07-15T11:41:07;4.68;;;2.72;;
41061;SDS011;26812;42.662;23.352;2022-07-15T11:44:01;4.03;;;3.03;;
41061;SDS011;26812;42.662;23.352;2022-07-15T11:46:50;4.95;;;3.97;;
41061;SDS011;26812;42.662;23.352;2022-07-15T11:49:35;4.28;;;2.50;;
41061;SDS011;26812;42.662;23.352;2022-07-15T11:52:07;2.70;;;2.40;;
41061;SDS011;26812;42.662;23.352;2022-07-15T11:54:35;2.45;;;2.20;;
41061;SDS011;26812;42.662;23.352;2022-07-15T11:57:03;3.22;;;1.50;;
41061;SDS011;26812;42.662;23.352;2022-07-15T11:59:33;2.90;;;2.45;;
41061;SDS011;26812;42.662;23.352;2022-07-15T12:01:59;5.72;;;4.05;;
41061;SDS011;26812;42.662;23.352;2022-07-15T12:04:35;1.92;;;1.50;;
41061;SDS011;26812;42.662;23.352;2022-07-15T12:07:02;2.53;;;1.58;;
41061;SDS011;26812;42.662;23.352;2022-07-15T12:10:01;3.05;;;1.92;;
41061;SDS011;26812;42.662;23.352;2022-07-15T12:12:19;2.00;;;1.90;;
41061;SDS011;26812;42.662;23.352;2022-07-15T12:14:45;3.30;;;2.20;;
41061;SDS011;26812;42.662;23.352;2022-07-15T12:17:13;2.95;;;2.40;;
41061;SDS011;26812;42.662;23.352;2022-07-15T12:19:38;3.05;;;2.42;;
41061;SDS011;26812;42.662;23.352;2022-07-15T12:22:07;2.95;;;2.30;;
41061;SDS011;26812;42.662;23.352;2022-07-15T12:27:09;2.53;;;1.80;;
41061;SDS011;26812;42.662;23.352;2022-07-15T12:29:36;2.67;;;2.40;;
41061;SDS011;26812;42.662;23.352;2022-07-15T12:32:04;2.75;;;1.67;;
41061;SDS011;26812;42.662;23.352;2022-07-15T12:40:05;4.57;;;2.40;;
41061;SDS011;26812;42.662;23.352;2022-07-15T12:45:08;3.80;;;2.60;;
41061;SDS011;26812;42.662;23.352;2022-07-15T12:47:36;3.35;;;2.58;;
41061;SDS011;26812;42.662;23.352;2022-07-15T12:50:20;2.63;;;2.42;;
41061;SDS011;26812;42.662;23.352;2022-07-15T12:52:46;4.03;;;2.47;;
41061;SDS011;26812;42.662;23.352;2022-07-15T12:57:42;2.42;;;2.20;;
41061;SDS011;26812;42.662;23.352;2022-07-15T13:05:32;4.22;;;2.28;;
41061;SDS011;26812;42.662;23.352;2022-07-15T13:08:08;3.47;;;2.70;;
41061;SDS011;26812;42.662;23.352;2022-07-15T13:10:47;4.43;;;2.40;;
41061;SDS011;26812;42.662;23.352;2022-07-15T13:13:15;2.38;;;2.17;;
41061;SDS011;26812;42.662;23.352;2022-07-15T13:15:43;6.82;;;2.42;;
41061;SDS011;26812;42.662;23.352;2022-07-15T13:18:10;3.88;;;2.80;;
41061;SDS011;26812;42.662;23.352;2022-07-15T13:20:36;3.45;;;2.50;;
41061;SDS011;26812;42.662;23.352;2022-07-15T13:23:02;4.35;;;3.15;;
41061;SDS011;26812;42.662;23.352;2022-07-15T13:25:29;2.88;;;2.65;;
41061;SDS011;26812;42.662;23.352;2022-07-15T13:27:55;3.17;;;2.72;;
41061;SDS011;26812;42.662;23.352;2022-07-15T13:30:21;3.45;;;2.22;;
41061;SDS011;26812;42.662;23.352;2022-07-15T13:32:47;3.17;;;2.47;;
41061;SDS011;26812;42.662;23.352;2022-07-15T13:35:14;4.03;;;2.28;;
41061;SDS011;26812;42.662;23.352;2022-07-15T13:37:40;3.80;;;2.58;;
41061;SDS011;26812;42.662;23.352;2022-07-15T13:40:06;6.93;;;2.55;;
41061;SDS011;26812;42.662;23.352;2022-07-15T13:42:34;2.83;;;2.63;;
41061;SDS011;26812;42.662;23.352;2022-07-15T13:44:59;4.55;;;2.60;;
41061;SDS011;26812;42.662;23.352;2022-07-15T13:47:26;3.50;;;2.50;;
41061;SDS011;26812;42.662;23.352;2022-07-15T13:49:52;2.88;;;2.42;;
41061;SDS011;26812;42.662;23.352;2022-07-15T13:52:46;5.78;;;2.53;;
41061;SDS011;26812;42.662;23.352;2022-07-15T13:55:13;3.95;;;3.38;;
41061;SDS011;26812;42.662;23.352;2022-07-15T13:57:40;3.75;;;2.90;;
41061;SDS011;26812;42.662;23.352;2022-07-15T14:00:06;3.47;;;2.90;;
41061;SDS011;26812;42.662;23.352;2022-07-15T14:02:36;3.53;;;2.55;;
41061;SDS011;26812;42.662;23.352;2022-07-15T14:05:02;2.83;;;2.45;;
41061;SDS011;26812;42.662;23.352;2022-07-15T14:07:27;4.30;;;3.05;;
41061;SDS011;26812;42.662;23.352;2022-07-15T14:09:53;4.30;;;2.85;;
41061;SDS011;26812;42.662;23.352;2022-07-15T14:12:18;4.63;;;2.28;;
41061;SDS011;26812;42.662;23.352;2022-07-15T14:14:44;4.40;;;2.08;;
41061;SDS011;26812;42.662;23.352;2022-07-15T14:17:10;2.70;;;2.00;;
41061;SDS011;26812;42.662;23.352;2022-07-15T14:19:35;2.60;;;1.98;;
41061;SDS011;26812;42.662;23.352;2022-07-15T14:22:01;3.90;;;2.70;;
41061;SDS011;26812;42.662;23.352;2022-07-15T14:24:26;5.70;;;3.42;;
41061;SDS011;26812;42.662;23.352;2022-07-15T14:26:52;3.40;;;2.40;;
41061;SDS011;26812;42.662;23.352;2022-07-15T14:29:17;3.65;;;2.50;;
41061;SDS011;26812;42.662;23.352;2022-07-15T14:31:43;3.25;;;2.55;;
41061;SDS011;26812;42.662;23.352;2022-07-15T14:34:08;2.97;;;2.30;;
41061;SDS011;26812;42.662;23.352;2022-07-15T14:36:34;3.15;;;2.10;;
41061;SDS011;26812;42.662;23.352;2022-07-15T14:38:59;2.70;;;2.45;;
41061;SDS011;26812;42.662;23.352;2022-07-15T14:41:25;9.57;;;3.22;;
41061;SDS011;26812;42.662;23.352;2022-07-15T14:43:50;5.10;;;2.72;;
41061;SDS011;26812;42.662;23.352;2022-07-15T14:46:15;6.68;;;2.55;;
41061;SDS011;26812;42.662;23.352;2022-07-15T14:48:41;2.40;;;1.83;;
41061;SDS011;26812;42.662;23.352;2022-07-15T14:51:06;2.50;;;2.10;;
41061;SDS011;26812;42.662;23.352;2022-07-15T14:53:31;4.10;;;3.15;;
41061;SDS011;26812;42.662;23.352;2022-07-15T14:55:57;2.80;;;2.55;;
41061;SDS011;26812;42.662;23.352;2022-07-15T14:58:23;4.28;;;2.40;;
41061;SDS011;26812;42.662;23.352;2022-07-15T15:00:49;5.07;;;2.28;;
41061;SDS011;26812;42.662;23.352;2022-07-15T15:03:15;3.15;;;2.08;;
41061;SDS011;26812;42.662;23.352;2022-07-15T15:05:42;2.38;;;2.13;;
41061;SDS011;26812;42.662;23.352;2022-07-15T15:08:08;5.57;;;2.80;;
41061;SDS011;26812;42.662;23.352;2022-07-15T15:10:33;2.42;;;2.22;;
41061;SDS011;26812;42.662;23.352;2022-07-15T15:12:59;2.58;;;2.28;;
41061;SDS011;26812;42.662;23.352;2022-07-15T15:15:24;2.40;;;2.20;;
41061;SDS011;26812;42.662;23.352;2022-07-15T15:17:50;2.30;;;1.92;;
41061;SDS011;26812;42.662;23.352;2022-07-15T15:20:16;3.38;;;2.03;;
41061;SDS011;26812;42.662;23.352;2022-07-15T15:22:42;4.43;;;2.22;;
41061;SDS011;26812;42.662;23.352;2022-07-15T15:25:08;3.17;;;2.30;;
41061;SDS011;26812;42.662;23.352;2022-07-15T15:27:34;3.85;;;2.47;;
41061;SDS011;26812;42.662;23.352;2022-07-15T15:30:00;2.45;;;2.10;;
41061;SDS011;26812;42.662;23.352;2022-07-15T15:32:25;5.97;;;2.45;;
41061;SDS011;26812;42.662;23.352;2022-07-15T15:34:51;4.05;;;2.50;;
41061;SDS011;26812;42.662;23.352;2022-07-15T15:37:16;2.95;;;2.30;;
41061;SDS011;26812;42.662;23.352;2022-07-15T15:39:42;2.90;;;2.40;;
41061;SDS011;26812;42.662;23.352;2022-07-15T15:42:08;4.60;;;2.67;;